Aviation Digital Data Service (ADDS)

Output produced by TAFs form (2021 UTC 18 July 2018)
found at http://www.aviationweather.gov/adds/tafs/
 
KEAU 181727Z 1818/1918 VRB03KT P6SM BKN050 
     FM190200 11002KT P6SM SCT250 
     FM191000 13003KT P6SM OVC250 
     FM191500 15010KT P6SM OVC050
       
KRNH 181727Z 1818/1918 14004KT P6SM SCT050 
     FM190200 11002KT P6SM SCT250 
     FM191200 12005KT P6SM OVC050 
     FM191400 14010KT P6SM SCT020 OVC040 
     PROB30 1914/1918 6SM -RA
       
KMSP 181725Z 1818/1924 14007KT P6SM SCT250 
     FM190900 12006KT P6SM BKN250 
     FM191200 11006KT P6SM VCSH BKN060 
     FM191400 13012KT 6SM -RA OVC020 
     FM191800 15014G20KT 6SM -SHRA OVC020 
     TEMPO 1918/1922 4SM -TSRA OVC015CB 
     FM192200 15012G20KT P6SM SCT020 OVC040 
     PROB30 1922/1924 4SM -TSRA OVC015CB